ΕΜΥ, Εθνική Μετεωρολογική Υπηρεσία - Δελτία Καιρού, Προγνώσεις

ΑΕΡΟΝΑΥΤΙΛΙΑ

GREEK AIRPORTS CODES

LGST 221500Z 19007KT 9999 FEW018TCU SCT025 BKN080 18/15 Q1019 RETS=

EUROPEAN AIRPORTS CODES

LFPO 221500Z 22006KT 190V250 9999 SCT023 BKN076 19/15 Q1012TEMPO 4000 SHRA SCT030TCU=